createdAt,value
2019-01-06T00:00:17.264Z,51.8
2019-01-06T00:05:17.188Z,44.6
2019-01-06T00:10:17.304Z,44.8
2019-01-06T00:15:17.215Z,45.6
2019-01-06T00:20:17.200Z,42.8
2019-01-06T00:25:17.052Z,45.3
2019-01-06T00:30:16.956Z,44.4
2019-01-06T00:35:16.755Z,36.7
2019-01-06T00:40:16.822Z,40.8
2019-01-06T00:45:16.639Z,42.2
2019-01-06T00:50:17.723Z,42
2019-01-06T00:55:17.540Z,39.7
2019-01-06T01:00:17.357Z,32.4
2019-01-06T01:05:17.215Z,40
2019-01-06T01:10:17.384Z,23.3
2019-01-06T01:15:17.233Z,29.3
2019-01-06T01:20:17.211Z,42.6
2019-01-06T01:25:17.152Z,42.8
2019-01-06T01:30:16.972Z,36.4
2019-01-06T01:35:16.791Z,41.7
2019-01-06T01:40:16.881Z,36
2019-01-06T01:45:16.705Z,34.1
2019-01-06T01:50:17.776Z,36.9
2019-01-06T01:55:16.705Z,33.1
2019-01-06T02:00:17.617Z,27
2019-01-06T02:05:17.428Z,29.1
2019-01-06T02:10:17.443Z,27.7
2019-01-06T02:15:17.408Z,16
2019-01-06T02:20:17.428Z,29.3
2019-01-06T02:25:17.259Z,21.7
2019-01-06T02:30:17.174Z,26.1
2019-01-06T02:35:17.144Z,20.2
2019-01-06T02:40:17.288Z,12.7
2019-01-06T02:45:17.135Z,23
2019-01-06T02:50:17.024Z,25.5
2019-01-06T02:55:16.821Z,13.5
2019-01-06T03:00:16.715Z,22.9
2019-01-06T03:05:16.599Z,21.4
2019-01-06T03:10:16.772Z,23.7
2019-01-06T03:15:16.744Z,20.8
2019-01-06T03:20:16.716Z,11.6
2019-01-06T03:25:19.292Z,20
2019-01-06T03:30:17.197Z,24.4
2019-01-06T03:35:17.031Z,19.7
2019-01-06T03:40:17.080Z,21.8
2019-01-06T03:45:16.940Z,21.1
2019-01-06T03:50:16.822Z,17
2019-01-06T03:55:16.630Z,21.5
2019-01-06T04:00:17.709Z,20.6
2019-01-06T04:05:16.609Z,19.2
2019-01-06T04:10:16.627Z,30.7
2019-01-06T04:15:17.551Z,21.7
2019-01-06T04:20:16.625Z,20.2
2019-01-06T04:25:17.556Z,20.1
2019-01-06T04:30:17.354Z,10.7
2019-01-06T04:35:17.184Z,20.6
2019-01-06T04:40:17.200Z,17.5
2019-01-06T04:45:17.015Z,18.3
2019-01-06T04:50:16.836Z,14.4
2019-01-06T04:55:16.705Z,22.7
2019-01-06T05:00:17.580Z,11.5
2019-01-06T05:05:17.439Z,20
2019-01-06T05:10:17.803Z,21.4
2019-01-06T05:15:16.634Z,19.6
2019-01-06T05:20:16.622Z,20.2
2019-01-06T05:25:17.544Z,21.1
2019-01-06T05:30:17.347Z,27.3
2019-01-06T05:35:17.204Z,20.4
2019-01-06T05:40:17.216Z,15.1
2019-01-06T05:45:17.089Z,19.8
2019-01-06T05:50:16.914Z,30.5
2019-01-06T05:55:16.792Z,20.1
2019-01-06T06:00:16.616Z,7.9
2019-01-06T06:05:17.504Z,20.3
2019-01-06T06:10:18.013Z,17.1
2019-01-06T06:15:16.875Z,19.4
2019-01-06T06:20:16.876Z,45.6
2019-01-06T06:25:16.995Z,20
2019-01-06T06:30:16.842Z,22.7
2019-01-06T06:35:16.700Z,23
2019-01-06T06:40:16.793Z,27.9
2019-01-06T06:45:16.647Z,27.4
2019-01-06T06:50:16.679Z,29.1
2019-01-06T06:55:17.747Z,30.8
2019-01-06T07:00:16.584Z,33.1
2019-01-06T07:05:17.742Z,39.4
2019-01-06T07:10:17.016Z,19.5
2019-01-06T07:15:17.292Z,26.8
2019-01-06T07:20:17.345Z,26.2
2019-01-06T07:25:17.189Z,41.8
2019-01-06T07:30:17.011Z,41
2019-01-06T07:35:16.835Z,27.7
2019-01-06T07:40:16.868Z,45.2
2019-01-06T07:45:16.709Z,35.9
2019-01-06T07:50:17.861Z,37.3
2019-01-06T07:55:16.695Z,48.5
2019-01-06T08:00:17.663Z,24.1
2019-01-06T08:05:17.480Z,23.3
2019-01-06T08:10:16.595Z,23.9
2019-01-06T08:15:17.806Z,19.9
2019-01-06T08:20:16.979Z,22
2019-01-06T08:25:16.880Z,15.3
2019-01-06T08:30:16.722Z,19.5
2019-01-06T08:35:17.868Z,25.9
2019-01-06T08:40:16.864Z,47.4
2019-01-06T08:45:16.852Z,27.1
2019-01-06T08:50:16.691Z,26.3
2019-01-06T08:55:17.607Z,17.6
2019-01-06T09:00:18.683Z,24
2019-01-06T09:05:17.640Z,27.8
2019-01-06T09:10:16.709Z,22.7
2019-01-06T09:15:16.628Z,25.3
2019-01-06T09:20:16.647Z,22.8
2019-01-06T09:25:17.477Z,21.3
2019-01-06T09:30:17.653Z,20.3
2019-01-06T09:35:17.471Z,18.7
2019-01-06T09:40:17.568Z,16.8
2019-01-06T09:45:17.396Z,17.5
2019-01-06T09:50:17.189Z,13.3
2019-01-06T09:55:17.060Z,17.2
2019-01-06T10:00:16.880Z,14.3
2019-01-06T10:05:16.687Z,15
2019-01-06T10:10:16.671Z,13.9
2019-01-06T10:15:17.820Z,12.7
2019-01-06T10:20:16.817Z,10.4
2019-01-06T10:25:17.162Z,10.8
2019-01-06T10:30:16.988Z,12.5
2019-01-06T10:35:16.840Z,4.3
2019-01-06T10:40:16.856Z,9.1
2019-01-06T10:45:16.663Z,9.4
2019-01-06T10:50:17.660Z,9
2019-01-06T10:55:17.548Z,2.6
2019-01-06T11:00:17.327Z,7.4
2019-01-06T11:05:17.141Z,7.9
2019-01-06T11:10:17.442Z,10.3
2019-01-06T11:15:17.406Z,3
2019-01-06T11:20:17.406Z,7
2019-01-06T11:25:17.239Z,11.3
2019-01-06T11:30:17.066Z,6.3
2019-01-06T11:35:16.856Z,4.4
2019-01-06T11:40:16.871Z,7.2
2019-01-06T11:45:16.660Z,5.9
2019-01-06T11:50:16.578Z,9.5
2019-01-06T11:55:17.448Z,11.4
2019-01-06T12:00:17.359Z,11.7
2019-01-06T12:05:17.236Z,6.9
2019-01-06T12:10:17.237Z,12.3
2019-01-06T12:15:17.099Z,11.2
2019-01-06T12:20:17.119Z,12.6
2019-01-06T12:25:16.903Z,6.6
2019-01-06T12:30:16.736Z,12
2019-01-06T12:35:17.613Z,18.7
2019-01-06T12:40:16.706Z,13.5
2019-01-06T12:45:16.768Z,10.9
2019-01-06T12:50:16.743Z,6.2
2019-01-06T12:55:16.587Z,11.6
2019-01-06T13:00:17.640Z,12.2
2019-01-06T13:05:17.424Z,10.1
2019-01-06T13:10:17.695Z,12.5
2019-01-06T13:15:17.665Z,7.2
2019-01-06T13:20:16.653Z,9.2
2019-01-06T13:25:17.523Z,9.6
2019-01-06T13:30:17.299Z,7.2
2019-01-06T13:35:17.162Z,10.1
2019-01-06T13:40:17.179Z,10.3
2019-01-06T13:45:17.028Z,11.5
2019-01-06T13:50:16.861Z,8.5
2019-01-06T13:55:16.718Z,22.7
2019-01-06T14:00:17.589Z,13.7
2019-01-06T14:05:17.400Z,7.5
2019-01-06T14:10:17.821Z,17.7
2019-01-06T14:15:16.722Z,15.6
2019-01-06T14:20:17.200Z,31
2019-01-06T14:25:17.438Z,10
2019-01-06T14:30:17.345Z,15
2019-01-06T14:35:17.246Z,14.9
2019-01-06T14:40:17.425Z,13.1
2019-01-06T14:45:17.235Z,17.3
2019-01-06T14:50:17.304Z,17.8
2019-01-06T14:55:17.104Z,6.7
2019-01-06T15:00:18.574Z,14.2
2019-01-06T15:05:16.792Z,12.3
2019-01-06T15:10:16.956Z,12.1
2019-01-06T15:15:17.063Z,11.8
2019-01-06T15:20:17.075Z,10.7
2019-01-06T15:25:16.909Z,12.2
2019-01-06T15:30:16.736Z,12.7
2019-01-06T15:35:16.589Z,11
2019-01-06T15:40:16.632Z,11.6
2019-01-06T15:45:17.687Z,11
2019-01-06T15:50:17.544Z,10.2
2019-01-06T15:55:17.340Z,4.4
2019-01-06T16:00:17.153Z,9.9
2019-01-06T16:05:16.983Z,8.7
2019-01-06T16:10:17.045Z,17.7
2019-01-06T16:15:16.869Z,8.5
2019-01-06T16:20:16.850Z,15.7
2019-01-06T16:25:16.687Z,10.4
2019-01-06T16:30:17.812Z,8.4
2019-01-06T16:35:16.696Z,7
2019-01-06T16:40:16.734Z,7.8
2019-01-06T16:45:16.628Z,4.8
2019-01-06T16:50:17.594Z,8.2
2019-01-06T16:55:17.445Z,5.2
2019-01-06T17:00:17.492Z,9.1
2019-01-06T17:05:17.328Z,8
2019-01-06T17:10:17.615Z,10.6
2019-01-06T17:15:17.565Z,3
2019-01-06T17:20:16.863Z,4.2
2019-01-06T17:25:16.745Z,14.9
2019-01-06T17:30:16.847Z,9.2
2019-01-06T17:35:16.763Z,15.5
2019-01-06T17:40:16.920Z,17.1
2019-01-06T17:45:16.764Z,18.6
2019-01-06T17:50:16.569Z,36
2019-01-06T17:55:17.700Z,16
2019-01-06T18:00:17.565Z,17.8
2019-01-06T18:05:17.732Z,16.9
2019-01-06T18:10:21.705Z,18.1
2019-01-06T18:15:17.488Z,15.2
2019-01-06T18:20:17.768Z,17.1
2019-01-06T18:25:16.768Z,16.9
2019-01-06T18:30:16.555Z,3.1
2019-01-06T18:35:17.360Z,4.1
